VOCL METAR and TAF | Updated Today

VOCL METAR

Calicut International Airport

Observation time: 9 min. ago

VOCL 080600Z 21002KT 6000 FEW015 31/22 Q1011 NOSIG

Need help? Read our tutorial on how to read METARs or read the parsed version below.

Calicut International Airport (VOCL) METAR

  • Weather conditions on Wed, 08 Dec 2021 06:00:00 +0000 (9 min. ago):
  • Present conditions: Dry
  • Clouds: A few at 457 meters
  • Visibility: 6000 meters
  • Wind: 210 degrees at 2 knots
  • Temperature: 31 celsius
  • Dew point: 22 celsius
  • Pressure: 1011 millibars
  • Remarks: None


Useful to know...

VOCL TAF

Calicut International Airport

TAF VOCL 080500Z 0806/0815 08005KT 5000 BR FEW015 TEMPO 0810/0814 4500 TS RA SCT012 FEW025CB BKN080
Observation time: 69 min. ago
Need help? Read our tutorial on how to read TAFs or read the parsed version below.

Parsed version of TAF for Calicut International Airport (VOCL)

  • From 08 December at 06:00 UTC, to day 08 of the month at 15:00 UTC
  • Clouds: A few at 457 meters
  • Visibility: 5000 meters
  • Wind: 80 degrees at 5
  • Other: Mist
  • Expected to arise temporarily, from 08 December at 10:00 UTC, to day 08 of the month at 14:00 UTC
  • Clouds: Scattered at 366 meters; a few at 762 meters, cumulonimbus; broken sky at 2438 meters
  • Visibility: 4500 meters
  • Other: Thunderstorms; rain

Airports near VOCL

No airports found within 100nm radius.